sensor_id;sensor_type;location;lat;lon;timestamp;pressure;altitude;pressure_sealevel;temperature;humidity
4767;BME280;2397;53.576;9.746;2023-10-09T00:01:07;102136.19;;;11.79;100.00
4767;BME280;2397;53.576;9.746;2023-10-09T00:03:40;102122.94;;;11.90;100.00
4767;BME280;2397;53.576;9.746;2023-10-09T00:06:08;102115.44;;;11.95;100.00
4767;BME280;2397;53.576;9.746;2023-10-09T00:08:39;102077.47;;;11.96;100.00
4767;BME280;2397;53.576;9.746;2023-10-09T00:11:11;102065.03;;;11.76;100.00
4767;BME280;2397;53.576;9.746;2023-10-09T00:13:44;102060.72;;;11.75;100.00
4767;BME280;2397;53.576;9.746;2023-10-09T00:16:25;102042.00;;;11.67;100.00
4767;BME280;2397;53.576;9.746;2023-10-09T00:19:03;102044.03;;;11.63;100.00
4767;BME280;2397;53.576;9.746;2023-10-09T00:21:56;102036.72;;;11.56;100.00
4767;BME280;2397;53.576;9.746;2023-10-09T00:24:25;102036.22;;;11.51;100.00
4767;BME280;2397;53.576;9.746;2023-10-09T00:26:52;102045.13;;;11.50;100.00
4767;BME280;2397;53.576;9.746;2023-10-09T00:29:22;102056.44;;;11.52;100.00
4767;BME280;2397;53.576;9.746;2023-10-09T00:31:53;102046.00;;;11.50;100.00
4767;BME280;2397;53.576;9.746;2023-10-09T00:34:53;102044.31;;;11.49;100.00
4767;BME280;2397;53.576;9.746;2023-10-09T00:37:19;102036.09;;;11.52;100.00
4767;BME280;2397;53.576;9.746;2023-10-09T00:39:49;102028.78;;;11.56;100.00
4767;BME280;2397;53.576;9.746;2023-10-09T00:42:26;102033.22;;;11.55;100.00
4767;BME280;2397;53.576;9.746;2023-10-09T00:44:56;101997.31;;;11.53;100.00
4767;BME280;2397;53.576;9.746;2023-10-09T00:47:32;101997.31;;;11.53;100.00
4767;BME280;2397;53.576;9.746;2023-10-09T00:50:08;101981.00;;;11.48;100.00
4767;BME280;2397;53.576;9.746;2023-10-09T00:52:38;101971.63;;;11.44;100.00
4767;BME280;2397;53.576;9.746;2023-10-09T00:55:07;101967.53;;;11.40;100.00
4767;BME280;2397;53.576;9.746;2023-10-09T00:57:43;101966.34;;;11.44;100.00
4767;BME280;2397;53.576;9.746;2023-10-09T01:00:14;101968.50;;;11.39;100.00
4767;BME280;2397;53.576;9.746;2023-10-09T01:03:00;101979.09;;;11.39;100.00
4767;BME280;2397;53.576;9.746;2023-10-09T01:06:03;101977.41;;;11.38;100.00
4767;BME280;2397;53.576;9.746;2023-10-09T01:08:38;101966.59;;;11.41;100.00
4767;BME280;2397;53.576;9.746;2023-10-09T01:11:12;101962.59;;;11.46;100.00
4767;BME280;2397;53.576;9.746;2023-10-09T01:13:46;101963.72;;;11.44;100.00
4767;BME280;2397;53.576;9.746;2023-10-09T01:16:21;101961.31;;;11.41;100.00
4767;BME280;2397;53.576;9.746;2023-10-09T01:18:51;101950.00;;;11.39;100.00
4767;BME280;2397;53.576;9.746;2023-10-09T01:21:19;101949.44;;;11.35;100.00
4767;BME280;2397;53.576;9.746;2023-10-09T01:23:53;101948.22;;;11.39;100.00
4767;BME280;2397;53.576;9.746;2023-10-09T01:26:39;101931.25;;;11.42;100.00
4767;BME280;2397;53.576;9.746;2023-10-09T01:29:11;101929.47;;;11.42;100.00
4767;BME280;2397;53.576;9.746;2023-10-09T01:31:46;101917.06;;;11.43;100.00
4767;BME280;2397;53.576;9.746;2023-10-09T01:34:30;101908.94;;;11.35;100.00
4767;BME280;2397;53.576;9.746;2023-10-09T01:37:17;101911.97;;;11.30;100.00
4767;BME280;2397;53.576;9.746;2023-10-09T01:39:57;101906.94;;;11.27;100.00
4767;BME280;2397;53.576;9.746;2023-10-09T01:42:47;101903.47;;;11.27;100.00
4767;BME280;2397;53.576;9.746;2023-10-09T01:45:14;101900.63;;;11.19;100.00
4767;BME280;2397;53.576;9.746;2023-10-09T01:47:46;101890.41;;;11.14;100.00
4767;BME280;2397;53.576;9.746;2023-10-09T01:50:20;101889.31;;;11.17;100.00
4767;BME280;2397;53.576;9.746;2023-10-09T01:52:48;101869.78;;;11.08;100.00
4767;BME280;2397;53.576;9.746;2023-10-09T01:55:16;101870.88;;;11.06;100.00
4767;BME280;2397;53.576;9.746;2023-10-09T01:57:56;101874.97;;;10.99;100.00
4767;BME280;2397;53.576;9.746;2023-10-09T02:00:32;101866.13;;;11.00;100.00
4767;BME280;2397;53.576;9.746;2023-10-09T02:03:02;101867.06;;;10.99;100.00
4767;BME280;2397;53.576;9.746;2023-10-09T02:05:32;101842.59;;;10.97;100.00
4767;BME280;2397;53.576;9.746;2023-10-09T02:08:03;101832.41;;;10.92;100.00
4767;BME280;2397;53.576;9.746;2023-10-09T02:10:32;101842.13;;;10.92;100.00
4767;BME280;2397;53.576;9.746;2023-10-09T02:13:01;101849.34;;;10.90;100.00
4767;BME280;2397;53.576;9.746;2023-10-09T02:15:34;101857.97;;;10.92;100.00
4767;BME280;2397;53.576;9.746;2023-10-09T02:18:18;101861.56;;;10.91;100.00
4767;BME280;2397;53.576;9.746;2023-10-09T02:23:27;101840.06;;;10.95;100.00
4767;BME280;2397;53.576;9.746;2023-10-09T02:26:08;101849.41;;;10.99;100.00
4767;BME280;2397;53.576;9.746;2023-10-09T02:28:36;101859.13;;;10.99;100.00
4767;BME280;2397;53.576;9.746;2023-10-09T02:31:10;101853.16;;;10.97;100.00
4767;BME280;2397;53.576;9.746;2023-10-09T02:33:37;101858.69;;;10.94;100.00
4767;BME280;2397;53.576;9.746;2023-10-09T02:36:06;101874.66;;;10.92;100.00
4767;BME280;2397;53.576;9.746;2023-10-09T02:38:34;101868.28;;;10.95;100.00
4767;BME280;2397;53.576;9.746;2023-10-09T02:41:02;101846.06;;;10.97;100.00
4767;BME280;2397;53.576;9.746;2023-10-09T02:43:29;101841.88;;;10.95;100.00
4767;BME280;2397;53.576;9.746;2023-10-09T02:46:03;101832.41;;;10.92;100.00
4767;BME280;2397;53.576;9.746;2023-10-09T02:48:40;101829.19;;;10.89;100.00
4767;BME280;2397;53.576;9.746;2023-10-09T02:51:14;101819.56;;;10.88;100.00
4767;BME280;2397;53.576;9.746;2023-10-09T02:54:01;101804.00;;;10.85;100.00
4767;BME280;2397;53.576;9.746;2023-10-09T02:56:49;101799.84;;;10.92;100.00
4767;BME280;2397;53.576;9.746;2023-10-09T02:59:23;101803.03;;;10.86;100.00
4767;BME280;2397;53.576;9.746;2023-10-09T03:01:50;101805.91;;;10.83;100.00
4767;BME280;2397;53.576;9.746;2023-10-09T03:04:19;101809.91;;;10.77;100.00
4767;BME280;2397;53.576;9.746;2023-10-09T03:06:46;101808.34;;;10.75;100.00
4767;BME280;2397;53.576;9.746;2023-10-09T03:09:20;101806.16;;;10.80;100.00
4767;BME280;2397;53.576;9.746;2023-10-09T03:12:13;101803.66;;;10.78;100.00
4767;BME280;2397;53.576;9.746;2023-10-09T03:14:40;101798.97;;;10.82;100.00
4767;BME280;2397;53.576;9.746;2023-10-09T03:17:08;101785.16;;;10.78;100.00
4767;BME280;2397;53.576;9.746;2023-10-09T03:19:38;101773.38;;;10.82;100.00
4767;BME280;2397;53.576;9.746;2023-10-09T03:22:07;101758.06;;;10.76;100.00
4767;BME280;2397;53.576;9.746;2023-10-09T03:24:38;101766.34;;;10.72;100.00
4767;BME280;2397;53.576;9.746;2023-10-09T03:27:08;101759.41;;;10.71;100.00
4767;BME280;2397;53.576;9.746;2023-10-09T03:29:35;101768.75;;;10.75;100.00
4767;BME280;2397;53.576;9.746;2023-10-09T03:32:01;101771.13;;;10.78;100.00
4767;BME280;2397;53.576;9.746;2023-10-09T03:34:28;101767.78;;;10.76;100.00
4767;BME280;2397;53.576;9.746;2023-10-09T03:36:57;101763.22;;;10.78;100.00
4767;BME280;2397;53.576;9.746;2023-10-09T03:39:31;101758.06;;;10.76;100.00
4767;BME280;2397;53.576;9.746;2023-10-09T03:42:07;101752.78;;;10.76;100.00
4767;BME280;2397;53.576;9.746;2023-10-09T03:44:38;101745.56;;;10.78;100.00
4767;BME280;2397;53.576;9.746;2023-10-09T03:47:10;101753.59;;;10.77;100.00
4767;BME280;2397;53.576;9.746;2023-10-09T03:49:38;101759.16;;;10.74;100.00
4767;BME280;2397;53.576;9.746;2023-10-09T03:52:05;101762.25;;;10.79;100.00
4767;BME280;2397;53.576;9.746;2023-10-09T03:54:35;101751.69;;;10.79;100.00
4767;BME280;2397;53.576;9.746;2023-10-09T03:57:04;101751.69;;;10.79;100.00
4767;BME280;2397;53.576;9.746;2023-10-09T03:59:32;101747.38;;;10.78;100.00
4767;BME280;2397;53.576;9.746;2023-10-09T04:01:59;101758.31;;;10.73;100.00
4767;BME280;2397;53.576;9.746;2023-10-09T04:04:25;101760.81;;;10.75;100.00
4767;BME280;2397;53.576;9.746;2023-10-09T04:06:54;101757.34;;;10.74;100.00
4767;BME280;2397;53.576;9.746;2023-10-09T04:09:21;101760.81;;;10.75;100.00
4767;BME280;2397;53.576;9.746;2023-10-09T04:11:49;101754.31;;;10.79;100.00
4767;BME280;2397;53.576;9.746;2023-10-09T04:14:23;101752.19;;;10.73;100.00
4767;BME280;2397;53.576;9.746;2023-10-09T04:17:00;101750.97;;;10.77;100.00
4767;BME280;2397;53.576;9.746;2023-10-09T04:19:32;101746.44;;;10.68;100.00
4767;BME280;2397;53.576;9.746;2023-10-09T04:22:14;101736.25;;;10.63;100.00
4767;BME280;2397;53.576;9.746;2023-10-09T04:24:53;101747.91;;;10.61;100.00
4767;BME280;2397;53.576;9.746;2023-10-09T04:27:20;101738.34;;;10.60;100.00
4767;BME280;2397;53.576;9.746;2023-10-09T04:29:53;101737.13;;;10.64;100.00
4767;BME280;2397;53.576;9.746;2023-10-09T04:32:20;101744.78;;;10.67;100.00
4767;BME280;2397;53.576;9.746;2023-10-09T04:34:51;101748.16;;;10.58;100.00
4767;BME280;2397;53.576;9.746;2023-10-09T04:37:36;101737.84;;;10.55;100.00
4767;BME280;2397;53.576;9.746;2023-10-09T04:40:04;101732.22;;;10.59;100.00
4767;BME280;2397;53.576;9.746;2023-10-09T04:42:51;101733.31;;;10.57;100.00
4767;BME280;2397;53.576;9.746;2023-10-09T04:45:38;101735.94;;;10.57;100.00
4767;BME280;2397;53.576;9.746;2023-10-09T04:48:23;101741.34;;;10.55;100.00
4767;BME280;2397;53.576;9.746;2023-10-09T04:51:00;101734.00;;;10.59;100.00
4767;BME280;2397;53.576;9.746;2023-10-09T04:53:45;101726.13;;;10.48;100.00
4767;BME280;2397;53.576;9.746;2023-10-09T04:56:14;101736.00;;;10.46;100.00
4767;BME280;2397;53.576;9.746;2023-10-09T04:58:43;101731.41;;;10.48;100.00
4767;BME280;2397;53.576;9.746;2023-10-09T05:01:12;101723.72;;;10.56;100.00
4767;BME280;2397;53.576;9.746;2023-10-09T05:03:40;101707.53;;;10.49;100.00
4767;BME280;2397;53.576;9.746;2023-10-09T05:06:07;101708.69;;;10.56;100.00
4767;BME280;2397;53.576;9.746;2023-10-09T05:08:52;101699.59;;;10.49;100.00
4767;BME280;2397;53.576;9.746;2023-10-09T05:11:22;101693.97;;;10.54;100.00
4767;BME280;2397;53.576;9.746;2023-10-09T05:14:12;101691.69;;;10.49;100.00
4767;BME280;2397;53.576;9.746;2023-10-09T05:16:39;101699.25;;;10.54;100.00
4767;BME280;2397;53.576;9.746;2023-10-09T05:19:23;101693.84;;;10.55;100.00
4767;BME280;2397;53.576;9.746;2023-10-09T05:22:09;101696.84;;;10.51;100.00
4767;BME280;2397;53.576;9.746;2023-10-09T05:24:57;101688.94;;;10.51;100.00
4767;BME280;2397;53.576;9.746;2023-10-09T05:27:27;101708.13;;;10.53;100.00
4767;BME280;2397;53.576;9.746;2023-10-09T05:30:12;101696.53;;;10.44;100.00
4767;BME280;2397;53.576;9.746;2023-10-09T05:32:52;101696.09;;;10.39;100.00
4767;BME280;2397;53.576;9.746;2023-10-09T05:35:22;101697.63;;;10.42;100.00
4767;BME280;2397;53.576;9.746;2023-10-09T05:37:56;101694.38;;;10.38;100.00
4767;BME280;2397;53.576;9.746;2023-10-09T05:40:30;101699.94;;;10.35;100.00
4767;BME280;2397;53.576;9.746;2023-10-09T05:43:02;101699.84;;;10.25;100.00
4767;BME280;2397;53.576;9.746;2023-10-09T05:45:30;101687.38;;;10.27;100.00
4767;BME280;2397;53.576;9.746;2023-10-09T05:48:17;101680.66;;;10.23;100.00
4767;BME280;2397;53.576;9.746;2023-10-09T05:50:44;101684.28;;;10.22;100.00
4767;BME280;2397;53.576;9.746;2023-10-09T05:53:29;101692.69;;;10.16;100.00
4767;BME280;2397;53.576;9.746;2023-10-09T05:56:21;101712.56;;;10.20;100.00
4767;BME280;2397;53.576;9.746;2023-10-09T05:59:06;101708.97;;;10.21;100.00
4767;BME280;2397;53.576;9.746;2023-10-09T06:01:32;101711.88;;;10.18;100.00
4767;BME280;2397;53.576;9.746;2023-10-09T06:04:18;101688.38;;;10.15;100.00
4767;BME280;2397;53.576;9.746;2023-10-09T06:06:46;101689.56;;;10.22;100.00
4767;BME280;2397;53.576;9.746;2023-10-09T06:09:22;101702.25;;;10.17;100.00
4767;BME280;2397;53.576;9.746;2023-10-09T06:11:49;101683.09;;;10.15;100.00
4767;BME280;2397;53.576;9.746;2023-10-09T06:14:23;101696.97;;;10.17;100.00
4767;BME280;2397;53.576;9.746;2023-10-09T06:17:12;101686.56;;;10.16;100.00
4767;BME280;2397;53.576;9.746;2023-10-09T06:19:39;101683.09;;;10.15;100.00
4767;BME280;2397;53.576;9.746;2023-10-09T06:22:15;101677.69;;;10.17;100.00
4767;BME280;2397;53.576;9.746;2023-10-09T06:25:16;101679.50;;;10.16;100.00
4767;BME280;2397;53.576;9.746;2023-10-09T06:27:44;101671.31;;;10.19;100.00
4767;BME280;2397;53.576;9.746;2023-10-09T06:30:23;101659.81;;;10.20;100.00
4767;BME280;2397;53.576;9.746;2023-10-09T06:32:51;101654.78;;;10.17;100.00
4767;BME280;2397;53.576;9.746;2023-10-09T06:35:24;101663.28;;;10.21;100.00
4767;BME280;2397;53.576;9.746;2023-10-09T06:37:58;101679.50;;;10.16;100.00
4767;BME280;2397;53.576;9.746;2023-10-09T06:40:32;101686.19;;;10.20;100.00
4767;BME280;2397;53.576;9.746;2023-10-09T06:43:22;101675.06;;;10.17;100.00
4767;BME280;2397;53.576;9.746;2023-10-09T06:45:53;101679.50;;;10.16;100.00
4767;BME280;2397;53.576;9.746;2023-10-09T06:48:21;101655.63;;;10.18;100.00
4767;BME280;2397;53.576;9.746;2023-10-09T06:51:08;101658.63;;;10.13;100.00
4767;BME280;2397;53.576;9.746;2023-10-09T06:53:55;101658.72;;;10.23;100.00
4767;BME280;2397;53.576;9.746;2023-10-09T06:56:22;101633.69;;;10.17;100.00
4767;BME280;2397;53.576;9.746;2023-10-09T06:59:03;101640.91;;;10.15;100.00
4767;BME280;2397;53.576;9.746;2023-10-09T07:01:51;101650.97;;;10.10;100.00
4767;BME280;2397;53.576;9.746;2023-10-09T07:04:36;101663.34;;;10.10;100.00
4767;BME280;2397;53.576;9.746;2023-10-09T07:07:03;101679.72;;;10.13;100.00
4767;BME280;2397;53.576;9.746;2023-10-09T07:09:36;101674.47;;;10.13;100.00
4767;BME280;2397;53.576;9.746;2023-10-09T07:12:21;101649.19;;;10.11;100.00
4767;BME280;2397;53.576;9.746;2023-10-09T07:14:52;101662.00;;;10.15;100.00
4767;BME280;2397;53.576;9.746;2023-10-09T07:17:28;101638.44;;;10.23;100.00
4767;BME280;2397;53.576;9.746;2023-10-09T07:20:00;101642.06;;;10.22;100.00
4767;BME280;2397;53.576;9.746;2023-10-09T07:22:47;101675.97;;;10.27;100.00
4767;BME280;2397;53.576;9.746;2023-10-09T07:25:22;101674.66;;;10.21;100.00
4767;BME280;2397;53.576;9.746;2023-10-09T07:28:11;101673.31;;;10.27;100.00
4767;BME280;2397;53.576;9.746;2023-10-09T07:31:03;101666.00;;;10.30;100.00
4767;BME280;2397;53.576;9.746;2023-10-09T07:33:30;101667.78;;;10.30;100.00
4767;BME280;2397;53.576;9.746;2023-10-09T07:36:17;101652.69;;;10.32;100.00
4767;BME280;2397;53.576;9.746;2023-10-09T07:38:56;101646.88;;;10.38;100.00
4767;BME280;2397;53.576;9.746;2023-10-09T07:41:22;101651.59;;;10.34;100.00
4767;BME280;2397;53.576;9.746;2023-10-09T07:43:49;101654.69;;;10.39;100.00
4767;BME280;2397;53.576;9.746;2023-10-09T07:46:18;101652.50;;;10.45;100.00
4767;BME280;2397;53.576;9.746;2023-10-09T07:49:00;101649.03;;;10.44;100.00
4767;BME280;2397;53.576;9.746;2023-10-09T07:51:36;101641.47;;;10.39;100.00
4767;BME280;2397;53.576;9.746;2023-10-09T07:54:03;101643.63;;;10.46;100.00
4767;BME280;2397;53.576;9.746;2023-10-09T07:56:37;101640.66;;;10.39;100.00
4767;BME280;2397;53.576;9.746;2023-10-09T07:59:13;101641.59;;;10.38;100.00
4767;BME280;2397;53.576;9.746;2023-10-09T08:01:43;101633.81;;;10.36;100.00
4767;BME280;2397;53.576;9.746;2023-10-09T08:04:23;101630.09;;;10.39;100.00
4767;BME280;2397;53.576;9.746;2023-10-09T08:07:10;101637.19;;;10.38;100.00
4767;BME280;2397;53.576;9.746;2023-10-09T08:10:07;101631.97;;;10.48;100.00
4767;BME280;2397;53.576;9.746;2023-10-09T08:12:46;101635.94;;;10.43;100.00
4767;BME280;2397;53.576;9.746;2023-10-09T08:15:17;101639.03;;;10.48;100.00
4767;BME280;2397;53.576;9.746;2023-10-09T08:17:52;101636.56;;;10.46;100.00
4767;BME280;2397;53.576;9.746;2023-10-09T08:20:30;101634.41;;;10.61;100.00
4767;BME280;2397;53.576;9.746;2023-10-09T08:23:15;101628.69;;;10.76;100.00
4767;BME280;2397;53.576;9.746;2023-10-09T08:26:15;101630.59;;;10.74;100.00
4767;BME280;2397;53.576;9.746;2023-10-09T08:28:56;101627.44;;;10.80;100.00
4767;BME280;2397;53.576;9.746;2023-10-09T08:31:41;101629.97;;;10.82;100.00
4767;BME280;2397;53.576;9.746;2023-10-09T08:34:23;101635.75;;;10.76;100.00
4767;BME280;2397;53.576;9.746;2023-10-09T08:36:55;101639.13;;;10.78;100.00
4767;BME280;2397;53.576;9.746;2023-10-09T08:39:22;101629.97;;;10.82;100.00
4767;BME280;2397;53.576;9.746;2023-10-09T08:41:53;101625.53;;;10.92;100.00
4767;BME280;2397;53.576;9.746;2023-10-09T08:44:20;101626.78;;;10.88;100.00
4767;BME280;2397;53.576;9.746;2023-10-09T08:46:53;101630.81;;;10.92;100.00
4767;BME280;2397;53.576;9.746;2023-10-09T08:49:20;101633.06;;;10.96;100.00
4767;BME280;2397;53.576;9.746;2023-10-09T08:51:50;101627.94;;;10.95;100.00
4767;BME280;2397;53.576;9.746;2023-10-09T08:54:19;101628.38;;;11.00;100.00
4767;BME280;2397;53.576;9.746;2023-10-09T08:56:46;101636.75;;;11.05;100.00
4767;BME280;2397;53.576;9.746;2023-10-09T08:59:18;101631.72;;;11.02;100.00
4767;BME280;2397;53.576;9.746;2023-10-09T09:01:49;101633.72;;;11.09;100.00
4767;BME280;2397;53.576;9.746;2023-10-09T09:04:39;101633.47;;;11.22;100.00
4767;BME280;2397;53.576;9.746;2023-10-09T09:07:27;101637.78;;;11.23;100.00
4767;BME280;2397;53.576;9.746;2023-10-09T09:10:06;101633.19;;;11.25;100.00
4767;BME280;2397;53.576;9.746;2023-10-09T09:12:47;101632.38;;;11.24;100.00
4767;BME280;2397;53.576;9.746;2023-10-09T09:15:19;101632.13;;;11.27;100.00
4767;BME280;2397;53.576;9.746;2023-10-09T09:17:47;101629.91;;;11.32;100.00
4767;BME280;2397;53.576;9.746;2023-10-09T09:20:23;101626.28;;;11.33;100.00
4767;BME280;2397;53.576;9.746;2023-10-09T09:22:54;101626.97;;;11.26;100.00
4767;BME280;2397;53.576;9.746;2023-10-09T09:25:24;101629.19;;;11.30;100.00
4767;BME280;2397;53.576;9.746;2023-10-09T09:27:51;101622.38;;;11.37;100.00
4767;BME280;2397;53.576;9.746;2023-10-09T09:30:23;101621.59;;;11.46;100.00
4767;BME280;2397;53.576;9.746;2023-10-09T09:32:50;101623.69;;;11.52;100.00
4767;BME280;2397;53.576;9.746;2023-10-09T09:35:37;101622.88;;;11.52;100.00
4767;BME280;2397;53.576;9.746;2023-10-09T09:38:03;101613.41;;;11.59;100.00
4767;BME280;2397;53.576;9.746;2023-10-09T09:40:32;101613.03;;;11.63;100.00
4767;BME280;2397;53.576;9.746;2023-10-09T09:43:08;101618.03;;;11.66;100.00
4767;BME280;2397;53.576;9.746;2023-10-09T09:45:48;101613.03;;;11.63;100.00
4767;BME280;2397;53.576;9.746;2023-10-09T09:48:16;101610.25;;;11.65;100.00
4767;BME280;2397;53.576;9.746;2023-10-09T09:50:46;101610.56;;;11.71;100.00
4767;BME280;2397;53.576;9.746;2023-10-09T09:53:20;101608.03;;;11.70;100.00
4767;BME280;2397;53.576;9.746;2023-10-09T09:55:53;101599.13;;;11.71;100.00
4767;BME280;2397;53.576;9.746;2023-10-09T09:58:25;101600.53;;;11.75;100.00
4767;BME280;2397;53.576;9.746;2023-10-09T10:01:01;101603.03;;;11.67;100.00
4767;BME280;2397;53.576;9.746;2023-10-09T10:03:38;101596.88;;;11.66;100.00
4767;BME280;2397;53.576;9.746;2023-10-09T10:06:10;101606.91;;;11.63;100.00
4767;BME280;2397;53.576;9.746;2023-10-09T10:08:41;101610.25;;;11.65;100.00
4767;BME280;2397;53.576;9.746;2023-10-09T10:14:14;101600.53;;;11.75;100.00
4767;BME280;2397;53.576;9.746;2023-10-09T10:17:12;101603.84;;;11.77;100.00
4767;BME280;2397;53.576;9.746;2023-10-09T10:22:46;101614.75;;;11.83;100.00
4767;BME280;2397;53.576;9.746;2023-10-09T10:31:05;101614.31;;;11.88;100.00
4767;BME280;2397;53.576;9.746;2023-10-09T10:36:24;101612.63;;;12.06;100.00
4767;BME280;2397;53.576;9.746;2023-10-09T10:39:03;101609.72;;;12.09;100.00
4767;BME280;2397;53.576;9.746;2023-10-09T10:41:31;101598.00;;;12.21;100.00
4767;BME280;2397;53.576;9.746;2023-10-09T10:44:03;101601.38;;;12.23;100.00
4767;BME280;2397;53.576;9.746;2023-10-09T10:46:48;101614.19;;;12.37;100.00
4767;BME280;2397;53.576;9.746;2023-10-09T10:49:21;101606.63;;;12.42;100.00
4767;BME280;2397;53.576;9.746;2023-10-09T10:51:49;101619.47;;;12.27;100.00
4767;BME280;2397;53.576;9.746;2023-10-09T10:54:23;101605.81;;;12.22;100.00
4767;BME280;2397;53.576;9.746;2023-10-09T10:56:59;101609.44;;;12.31;100.00
4767;BME280;2397;53.576;9.746;2023-10-09T10:59:30;101609.03;;;12.35;100.00
4767;BME280;2397;53.576;9.746;2023-10-09T11:02:09;101609.13;;;12.43;100.00
4767;BME280;2397;53.576;9.746;2023-10-09T11:04:36;101616.66;;;12.48;100.00
4767;BME280;2397;53.576;9.746;2023-10-09T11:07:11;101619.59;;;12.45;100.00
4767;BME280;2397;53.576;9.746;2023-10-09T11:09:53;101617.09;;;12.43;100.00
4767;BME280;2397;53.576;9.746;2023-10-09T11:12:42;101605.94;;;12.40;100.00
4767;BME280;2397;53.576;9.746;2023-10-09T11:15:14;101609.56;;;12.39;100.00
4767;BME280;2397;53.576;9.746;2023-10-09T11:20:34;101604.13;;;12.40;100.00
4767;BME280;2397;53.576;9.746;2023-10-09T11:23:05;101594.09;;;12.44;100.00
4767;BME280;2397;53.576;9.746;2023-10-09T11:25:39;101592.84;;;12.48;100.00
4767;BME280;2397;53.576;9.746;2023-10-09T11:28:21;101586.56;;;12.49;100.00
4767;BME280;2397;53.576;9.746;2023-10-09T11:31:06;101588.91;;;12.52;100.00
4767;BME280;2397;53.576;9.746;2023-10-09T11:33:50;101592.66;;;12.59;100.00
4767;BME280;2397;53.576;9.746;2023-10-09T11:36:21;101598.50;;;12.62;100.00
4767;BME280;2397;53.576;9.746;2023-10-09T11:38:59;101598.75;;;12.69;100.00
4767;BME280;2397;53.576;9.746;2023-10-09T11:41:48;101604.91;;;12.69;100.00
4767;BME280;2397;53.576;9.746;2023-10-09T11:44:16;101600.84;;;12.75;100.00
4767;BME280;2397;53.576;9.746;2023-10-09T11:46:57;101604.06;;;12.69;100.00
4767;BME280;2397;53.576;9.746;2023-10-09T11:49:25;101595.81;;;12.72;100.00
4767;BME280;2397;53.576;9.746;2023-10-09T11:52:11;101596.09;;;12.78;100.00
4767;BME280;2397;53.576;9.746;2023-10-09T11:54:40;101599.44;;;12.80;100.00
4767;BME280;2397;53.576;9.746;2023-10-09T11:57:10;101602.66;;;12.84;100.00
4767;BME280;2397;53.576;9.746;2023-10-09T11:59:36;101600.38;;;12.89;100.00
4767;BME280;2397;53.576;9.746;2023-10-09T12:02:08;101591.69;;;12.96;100.00
4767;BME280;2397;53.576;9.746;2023-10-09T12:04:40;101595.03;;;13.08;100.00
4767;BME280;2397;53.576;9.746;2023-10-09T12:07:12;101591.34;;;13.18;100.00
4767;BME280;2397;53.576;9.746;2023-10-09T12:09:39;101592.28;;;13.27;100.00
4767;BME280;2397;53.576;9.746;2023-10-09T12:12:07;101586.59;;;13.22;100.00
4767;BME280;2397;53.576;9.746;2023-10-09T12:14:35;101591.91;;;13.22;100.00
4767;BME280;2397;53.576;9.746;2023-10-09T12:17:04;101591.34;;;13.18;100.00
4767;BME280;2397;53.576;9.746;2023-10-09T12:19:36;101587.19;;;13.16;100.00
4767;BME280;2397;53.576;9.746;2023-10-09T12:22:04;101587.03;;;13.17;100.00
4767;BME280;2397;53.576;9.746;2023-10-09T12:24:32;101591.81;;;13.14;100.00
4767;BME280;2397;53.576;9.746;2023-10-09T12:27:00;101588.88;;;13.17;100.00
4767;BME280;2397;53.576;9.746;2023-10-09T12:29:26;101600.91;;;13.11;100.00
4767;BME280;2397;53.576;9.746;2023-10-09T12:31:59;101593.84;;;13.20;100.00
4767;BME280;2397;53.576;9.746;2023-10-09T12:34:26;101590.78;;;13.24;100.00
4767;BME280;2397;53.576;9.746;2023-10-09T12:36:57;101583.19;;;13.29;100.00
4767;BME280;2397;53.576;9.746;2023-10-09T12:39:30;101594.06;;;13.36;100.00
4767;BME280;2397;53.576;9.746;2023-10-09T12:42:06;101590.94;;;13.40;100.00
4767;BME280;2397;53.576;9.746;2023-10-09T12:44:35;101598.22;;;13.38;100.00
4767;BME280;2397;53.576;9.746;2023-10-09T12:47:06;101592.09;;;13.38;100.00
4767;BME280;2397;53.576;9.746;2023-10-09T12:49:33;101590.94;;;13.40;100.00
4767;BME280;2397;53.576;9.746;2023-10-09T12:52:00;101591.94;;;13.39;100.00
4767;BME280;2397;53.576;9.746;2023-10-09T12:54:27;101593.06;;;13.37;100.00
4767;BME280;2397;53.576;9.746;2023-10-09T12:56:54;101587.63;;;13.38;100.00
4767;BME280;2397;53.576;9.746;2023-10-09T12:59:21;101586.13;;;13.36;100.00
4767;BME280;2397;53.576;9.746;2023-10-09T13:01:50;101594.88;;;13.36;100.00
4767;BME280;2397;53.576;9.746;2023-10-09T13:04:24;101587.91;;;13.35;100.00
4767;BME280;2397;53.576;9.746;2023-10-09T13:06:58;101581.47;;;13.38;100.00
4767;BME280;2397;53.576;9.746;2023-10-09T13:09:31;101589.28;;;13.39;100.00
4767;BME280;2397;53.576;9.746;2023-10-09T13:12:09;101594.16;;;13.44;100.00
4767;BME280;2397;53.576;9.746;2023-10-09T13:14:45;101589.78;;;13.52;100.00
4767;BME280;2397;53.576;9.746;2023-10-09T13:17:13;101586.66;;;13.57;100.00
4767;BME280;2397;53.576;9.746;2023-10-09T13:19:40;101586.06;;;13.63;100.00
4767;BME280;2397;53.576;9.746;2023-10-09T13:22:07;101586.16;;;13.71;100.00
4767;BME280;2397;53.576;9.746;2023-10-09T13:24:40;101588.06;;;13.79;100.00
4767;BME280;2397;53.576;9.746;2023-10-09T13:27:06;101584.63;;;13.86;100.00
4767;BME280;2397;53.576;9.746;2023-10-09T13:29:37;101586.91;;;13.81;100.00
4767;BME280;2397;53.576;9.746;2023-10-09T13:32:07;101597.53;;;13.81;100.00
4767;BME280;2397;53.576;9.746;2023-10-09T13:34:41;101597.25;;;13.84;100.00
4767;BME280;2397;53.576;9.746;2023-10-09T13:37:15;101599.25;;;13.90;100.00
4767;BME280;2397;53.576;9.746;2023-10-09T13:39:48;101599.97;;;13.92;100.00
4767;BME280;2397;53.576;9.746;2023-10-09T13:42:22;101596.47;;;13.92;100.00
4767;BME280;2397;53.576;9.746;2023-10-09T13:44:52;101604.66;;;13.98;100.00
4767;BME280;2397;53.576;9.746;2023-10-09T13:47:20;101598.44;;;14.07;100.00
4767;BME280;2397;53.576;9.746;2023-10-09T13:49:47;101602.97;;;14.15;100.00
4767;BME280;2397;53.576;9.746;2023-10-09T13:52:18;101595.63;;;14.26;100.00
4767;BME280;2397;53.576;9.746;2023-10-09T13:54:45;101586.38;;;14.30;100.00
4767;BME280;2397;53.576;9.746;2023-10-09T13:57:14;101587.72;;;14.34;100.00